Time;durP1;ratioP1;P1;durP2;ratioP2;P2;SDS_P1;SDS_P2;PMS_P1;PMS_P2;Temp;Humidity;BMP_temperature;BMP_pressure;BME280_temperature;BME280_humidity;BME280_pressure;Samples;Min_cycle;Max_cycle;Signal;HPM_P1;HPM_P2
2023/06/22 00:01:51;;;;;;;7.00;6.57;;;;;;;;;;4920770;29;20433;-70
2023/06/22 00:04:17;;;;;;;6.67;6.27;;;;;;;;;;4920963;29;20420;-70
2023/06/22 00:06:43;;;;;;;7.37;5.80;;;;;;;;;;4920787;29;20932;-70
2023/06/22 00:09:10;;;;;;;6.90;6.50;;;;;;;;;;4920465;29;20458;-71
2023/06/22 00:11:36;;;;;;;6.47;5.77;;;;;;;;;;4920369;29;20556;-71
2023/06/22 00:14:02;;;;;;;5.37;4.70;;;;;;;;;;4920605;29;20432;-71
2023/06/22 00:16:28;;;;;;;7.80;7.10;;;;;;;;;;4920449;29;20473;-70
2023/06/22 00:18:54;;;;;;;11.80;8.30;;;;;;;;;;4920694;29;20429;-70
2023/06/22 00:21:20;;;;;;;6.20;5.80;;;;;;;;;;4920516;29;20424;-71
2023/06/22 00:23:47;;;;;;;9.13;8.23;;;;;;;;;;4920169;29;20424;-70
2023/06/22 00:26:13;;;;;;;7.73;7.10;;;;;;;;;;4934727;29;20487;-70
2023/06/22 00:28:39;;;;;;;8.17;7.47;;;;;;;;;;4920372;29;20420;-71
2023/06/22 00:31:05;;;;;;;7.50;6.80;;;;;;;;;;4919770;29;20492;-71
2023/06/22 00:33:31;;;;;;;9.13;7.87;;;;;;;;;;4934635;29;20421;-70
2023/06/22 00:35:57;;;;;;;10.20;8.50;;;;;;;;;;4919867;29;20797;-71
2023/06/22 00:38:23;;;;;;;9.37;8.47;;;;;;;;;;4919889;29;20452;-70
2023/06/22 00:40:49;;;;;;;9.53;8.57;;;;;;;;;;4920131;29;20975;-70
2023/06/22 00:43:15;;;;;;;10.20;8.77;;;;;;;;;;4920104;29;20416;-70
2023/06/22 00:45:41;;;;;;;14.87;9.70;;;;;;;;;;4919648;29;20428;-71
2023/06/22 00:48:08;;;;;;;10.70;9.57;;;;;;;;;;4919598;29;20224;-70
2023/06/22 00:50:34;;;;;;;9.70;8.43;;;;;;;;;;4918640;29;20906;-70
2023/06/22 00:53:02;;;;;;;11.10;9.07;;;;;;;;;;4933879;29;20543;-70
2023/06/22 00:55:28;;;;;;;6.70;5.17;;;;;;;;;;4919544;29;20934;-71
2023/06/22 00:57:55;;;;;;;11.07;9.97;;;;;;;;;;4919446;29;20428;-70
2023/06/22 01:00:24;;;;;;;12.40;10.97;;;;;;;;;;4919426;29;20413;-70
2023/06/22 01:02:51;;;;;;;10.57;9.80;;;;;;;;;;4919473;29;20444;-70
2023/06/22 01:05:18;;;;;;;9.87;9.17;;;;;;;;;;4919559;29;20560;-71
2023/06/22 01:07:47;;;;;;;11.10;9.00;;;;;;;;;;4919918;29;20507;-70
2023/06/22 01:10:25;;;;;;;12.50;11.30;;;;;;;;;;4919606;29;20436;-70
2023/06/22 01:12:53;;;;;;;11.10;9.80;;;;;;;;;;4920074;29;20480;-71
2023/06/22 01:15:23;;;;;;;11.40;10.30;;;;;;;;;;4919201;29;20451;-71
2023/06/22 01:17:50;;;;;;;14.20;10.00;;;;;;;;;;4919790;29;20408;-70
2023/06/22 01:20:17;;;;;;;10.53;9.63;;;;;;;;;;4919158;29;20428;-70
2023/06/22 01:22:55;;;;;;;13.63;10.93;;;;;;;;;;4919378;29;20427;-70
2023/06/22 01:25:26;;;;;;;13.70;10.20;;;;;;;;;;4933658;29;20431;-70
2023/06/22 01:27:55;;;;;;;23.90;11.53;;;;;;;;;;4919362;29;20888;-70
2023/06/22 01:30:22;;;;;;;5.90;5.53;;;;;;;;;;4918930;29;20519;-70
2023/06/22 01:32:48;;;;;;;19.40;10.47;;;;;;;;;;4918639;29;20592;-70
2023/06/22 01:35:15;;;;;;;11.50;10.03;;;;;;;;;;4919346;29;20421;-71
2023/06/22 01:37:41;;;;;;;14.90;10.40;;;;;;;;;;4918834;29;20427;-70
2023/06/22 01:40:08;;;;;;;10.47;9.67;;;;;;;;;;4919271;29;20504;-71
2023/06/22 01:42:35;;;;;;;8.20;7.33;;;;;;;;;;4918781;29;20484;-70
2023/06/22 01:45:01;;;;;;;10.40;9.50;;;;;;;;;;4919150;29;20967;-70
2023/06/22 01:47:28;;;;;;;15.03;10.97;;;;;;;;;;4918671;29;20503;-70
2023/06/22 01:49:55;;;;;;;10.80;9.23;;;;;;;;;;4918887;29;20421;-71
2023/06/22 01:52:21;;;;;;;17.27;11.30;;;;;;;;;;4918464;29;20483;-70
2023/06/22 01:54:48;;;;;;;8.20;7.50;;;;;;;;;;4918769;29;20424;-70
2023/06/22 01:57:14;;;;;;;8.43;7.73;;;;;;;;;;4918968;29;20437;-70
2023/06/22 01:59:45;;;;;;;11.27;6.67;;;;;;;;;;4919312;29;20992;-70
2023/06/22 02:02:12;;;;;;;15.57;11.67;;;;;;;;;;4918327;29;20416;-70
2023/06/22 02:04:44;;;;;;;15.43;11.37;;;;;;;;;;4918823;29;20972;-70
2023/06/22 02:07:13;;;;;;;17.93;11.10;;;;;;;;;;4918612;29;20504;-71
2023/06/22 02:09:39;;;;;;;14.07;10.20;;;;;;;;;;4918560;29;20805;-70
2023/06/22 02:12:07;;;;;;;15.10;9.47;;;;;;;;;;4918174;29;20853;-70
2023/06/22 02:14:33;;;;;;;12.73;6.40;;;;;;;;;;4918117;29;20846;-70
2023/06/22 02:17:00;;;;;;;9.53;8.40;;;;;;;;;;4918407;29;20425;-70
2023/06/22 02:19:27;;;;;;;13.53;11.10;;;;;;;;;;4918340;29;20496;-70
2023/06/22 02:21:53;;;;;;;12.50;11.30;;;;;;;;;;4918086;29;20448;-71
2023/06/22 02:24:19;;;;;;;19.30;11.10;;;;;;;;;;4917995;29;20432;-70
2023/06/22 02:26:45;;;;;;;16.63;10.40;;;;;;;;;;4918000;29;20412;-71
2023/06/22 02:29:11;;;;;;;22.03;10.63;;;;;;;;;;4917904;29;20193;-70
2023/06/22 02:31:37;;;;;;;12.53;10.47;;;;;;;;;;4917796;29;20488;-71
2023/06/22 02:34:03;;;;;;;11.80;9.97;;;;;;;;;;4917790;29;20428;-70
2023/06/22 02:36:30;;;;;;;10.30;9.23;;;;;;;;;;4918032;29;20421;-70
2023/06/22 02:38:58;;;;;;;13.43;10.13;;;;;;;;;;4917774;29;20413;-70
2023/06/22 02:41:24;;;;;;;11.50;10.30;;;;;;;;;;4917724;29;20432;-70
2023/06/22 02:43:50;;;;;;;9.67;8.60;;;;;;;;;;4917968;29;20928;-70
2023/06/22 02:46:16;;;;;;;14.13;9.63;;;;;;;;;;4918123;29;20424;-70
2023/06/22 02:48:42;;;;;;;13.90;10.37;;;;;;;;;;4917948;29;20959;-70
2023/06/22 02:51:08;;;;;;;11.47;10.37;;;;;;;;;;4917822;29;20461;-71
2023/06/22 02:53:34;;;;;;;11.23;9.77;;;;;;;;;;4917589;29;20424;-71
2023/06/22 02:56:05;;;;;;;9.90;8.70;;;;;;;;;;4917547;29;20405;-70
2023/06/22 02:58:31;;;;;;;11.63;9.67;;;;;;;;;;4917851;29;20409;-71
2023/06/22 03:00:56;;;;;;;10.93;9.87;;;;;;;;;;4917739;29;20980;-71
2023/06/22 03:03:22;;;;;;;11.23;10.10;;;;;;;;;;4917374;29;20439;-70
2023/06/22 03:05:48;;;;;;;12.40;10.23;;;;;;;;;;4917664;29;20429;-71
2023/06/22 03:08:14;;;;;;;16.00;10.37;;;;;;;;;;4917625;29;20901;-71
2023/06/22 03:10:40;;;;;;;20.63;10.13;;;;;;;;;;4917665;29;20799;-71
2023/06/22 03:13:06;;;;;;;15.17;10.57;;;;;;;;;;4917191;29;20440;-70
2023/06/22 03:15:32;;;;;;;12.07;10.97;;;;;;;;;;4916603;29;20436;-71
2023/06/22 03:21:02;;;;;;;18.83;10.70;;;;;;;;;;4917340;29;20230;-70
2023/06/22 03:23:28;;;;;;;11.90;10.70;;;;;;;;;;4917490;29;20412;-71
2023/06/22 03:25:55;;;;;;;12.10;9.57;;;;;;;;;;4917104;29;20556;-70
2023/06/22 03:28:21;;;;;;;17.40;9.53;;;;;;;;;;4917504;29;20765;-70
2023/06/22 03:30:47;;;;;;;11.23;10.13;;;;;;;;;;4917134;29;20765;-70
2023/06/22 03:33:13;;;;;;;10.47;9.43;;;;;;;;;;4917422;29;20465;-70
2023/06/22 03:35:39;;;;;;;11.33;10.27;;;;;;;;;;4917348;29;20469;-70
2023/06/22 03:38:05;;;;;;;16.03;9.90;;;;;;;;;;4931585;29;20459;-71
2023/06/22 03:40:31;;;;;;;16.53;10.50;;;;;;;;;;4917411;29;20185;-71
2023/06/22 03:42:57;;;;;;;10.00;8.50;;;;;;;;;;4917074;29;20924;-70
2023/06/22 03:45:23;;;;;;;12.43;9.23;;;;;;;;;;4917245;29;20799;-71
2023/06/22 03:47:49;;;;;;;11.43;9.87;;;;;;;;;;4917225;29;20440;-70
2023/06/22 03:50:15;;;;;;;12.30;9.70;;;;;;;;;;4917528;29;20520;-70
2023/06/22 03:52:41;;;;;;;13.60;10.30;;;;;;;;;;4916978;29;20472;-70
2023/06/22 03:55:07;;;;;;;13.23;10.97;;;;;;;;;;4916840;29;20475;-70
2023/06/22 03:57:34;;;;;;;11.30;10.20;;;;;;;;;;4916954;29;20433;-71
2023/06/22 04:00:00;;;;;;;14.90;10.37;;;;;;;;;;4916968;29;20976;-70
2023/06/22 04:02:26;;;;;;;12.63;10.33;;;;;;;;;;4917036;29;20457;-70
2023/06/22 04:04:52;;;;;;;22.47;10.77;;;;;;;;;;4916891;29;20420;-70
2023/06/22 04:07:18;;;;;;;11.50;10.10;;;;;;;;;;4917102;29;20905;-70
2023/06/22 04:09:44;;;;;;;12.27;10.60;;;;;;;;;;4917140;29;20421;-70
2023/06/22 04:12:10;;;;;;;12.30;10.70;;;;;;;;;;4916996;29;20480;-70
2023/06/22 04:14:36;;;;;;;16.93;10.93;;;;;;;;;;4916738;29;20425;-70
2023/06/22 04:17:02;;;;;;;12.83;10.40;;;;;;;;;;4916752;29;20931;-70
2023/06/22 04:19:28;;;;;;;12.20;10.97;;;;;;;;;;4917054;29;20507;-70
2023/06/22 04:21:54;;;;;;;12.97;11.57;;;;;;;;;;4916978;29;20897;-70
2023/06/22 04:24:20;;;;;;;11.60;10.60;;;;;;;;;;4917078;29;20508;-71
2023/06/22 04:26:46;;;;;;;12.33;10.67;;;;;;;;;;4920000;29;20236;-72
2023/06/22 04:29:13;;;;;;;16.87;10.03;;;;;;;;;;4920031;29;20924;-71
2023/06/22 04:31:39;;;;;;;11.40;9.30;;;;;;;;;;4920048;29;20488;-73
2023/06/22 04:34:08;;;;;;;15.03;9.60;;;;;;;;;;4919925;29;20444;-71
2023/06/22 04:36:38;;;;;;;25.37;10.77;;;;;;;;;;4919858;29;20901;-70
2023/06/22 04:39:11;;;;;;;10.73;9.80;;;;;;;;;;4919896;29;20443;-72
2023/06/22 04:41:43;;;;;;;15.80;11.30;;;;;;;;;;4919914;29;20412;-72
2023/06/22 04:44:10;;;;;;;13.63;10.07;;;;;;;;;;4919653;29;20523;-70
2023/06/22 04:46:37;;;;;;;15.00;11.10;;;;;;;;;;4920252;29;20417;-71
2023/06/22 04:49:06;;;;;;;14.77;10.20;;;;;;;;;;4919939;29;20433;-73
2023/06/22 04:51:32;;;;;;;20.10;11.47;;;;;;;;;;4919561;29;20480;-73
2023/06/22 04:54:00;;;;;;;14.23;11.10;;;;;;;;;;4919449;29;20476;-73
2023/06/22 04:56:28;;;;;;;17.83;12.63;;;;;;;;;;4919784;29;20425;-73
2023/06/22 04:58:56;;;;;;;19.63;10.73;;;;;;;;;;4919752;29;20799;-74
2023/06/22 05:01:22;;;;;;;11.57;10.47;;;;;;;;;;4919616;29;20452;-73
2023/06/22 05:03:48;;;;;;;18.00;9.87;;;;;;;;;;4919319;29;20510;-73
2023/06/22 05:06:14;;;;;;;19.70;10.83;;;;;;;;;;4919604;29;20903;-71
2023/06/22 05:08:41;;;;;;;19.47;9.47;;;;;;;;;;4919354;29;20416;-70
2023/06/22 05:11:07;;;;;;;19.03;10.50;;;;;;;;;;4919050;29;20566;-71
2023/06/22 05:13:33;;;;;;;11.90;9.37;;;;;;;;;;4919510;29;20431;-73
2023/06/22 05:16:01;;;;;;;15.53;8.90;;;;;;;;;;4919108;29;20417;-70
2023/06/22 05:18:31;;;;;;;12.20;9.90;;;;;;;;;;4919361;29;20436;-70
2023/06/22 05:20:59;;;;;;;24.97;9.93;;;;;;;;;;4919134;29;20412;-72
2023/06/22 05:23:25;;;;;;;21.73;9.90;;;;;;;;;;4919255;29;20440;-72
2023/06/22 05:25:52;;;;;;;13.47;9.70;;;;;;;;;;4918836;29;20427;-71
2023/06/22 05:28:22;;;;;;;17.57;9.87;;;;;;;;;;4933507;29;20188;-71
2023/06/22 05:30:48;;;;;;;12.30;9.53;;;;;;;;;;4918866;29;20428;-74
2023/06/22 05:33:14;;;;;;;13.23;10.53;;;;;;;;;;4933273;29;20921;-72
2023/06/22 05:35:41;;;;;;;15.43;11.00;;;;;;;;;;4918888;29;20488;-72
2023/06/22 05:38:07;;;;;;;14.17;9.60;;;;;;;;;;4917999;29;20444;-73
2023/06/22 05:40:33;;;;;;;16.53;10.20;;;;;;;;;;4918678;29;20897;-73
2023/06/22 05:43:01;;;;;;;22.20;11.27;;;;;;;;;;4918896;29;20495;-73
2023/06/22 05:45:27;;;;;;;22.17;8.83;;;;;;;;;;4918659;29;20520;-72
2023/06/22 05:47:53;;;;;;;13.70;10.20;;;;;;;;;;4918432;29;20874;-71
2023/06/22 05:50:19;;;;;;;16.47;9.33;;;;;;;;;;4918518;29;20424;-72
2023/06/22 05:52:45;;;;;;;16.87;9.87;;;;;;;;;;4918372;29;20485;-73
2023/06/22 05:55:11;;;;;;;13.37;10.40;;;;;;;;;;4918640;29;20512;-73
2023/06/22 05:57:37;;;;;;;11.90;9.00;;;;;;;;;;4918341;29;20916;-73
2023/06/22 06:00:06;;;;;;;15.00;11.33;;;;;;;;;;4932902;29;20432;-72
2023/06/22 06:02:33;;;;;;;22.77;10.57;;;;;;;;;;4917750;29;20796;-74
2023/06/22 06:04:59;;;;;;;30.53;12.87;;;;;;;;;;4918490;29;20188;-72
2023/06/22 06:07:26;;;;;;;24.40;11.33;;;;;;;;;;4918176;29;20421;-75
2023/06/22 06:09:52;;;;;;;23.13;11.57;;;;;;;;;;4918571;29;20431;-75
2023/06/22 06:12:18;;;;;;;15.20;11.13;;;;;;;;;;4918249;29;20504;-74
2023/06/22 06:14:44;;;;;;;12.83;11.47;;;;;;;;;;4918016;29;20421;-75
2023/06/22 06:17:10;;;;;;;18.33;11.13;;;;;;;;;;4918135;29;20433;-76
2023/06/22 06:19:36;;;;;;;13.93;12.10;;;;;;;;;;4918264;29;20829;-72
2023/06/22 06:22:02;;;;;;;17.43;10.40;;;;;;;;;;4917784;29;20429;-71
2023/06/22 06:24:28;;;;;;;31.33;12.37;;;;;;;;;;4917432;29;20452;-75
2023/06/22 06:26:55;;;;;;;16.83;11.73;;;;;;;;;;4917321;29;20421;-74
2023/06/22 06:29:21;;;;;;;17.30;12.00;;;;;;;;;;4917479;29;20424;-74
2023/06/22 06:31:47;;;;;;;13.53;12.13;;;;;;;;;;4917290;29;20495;-75
2023/06/22 06:34:13;;;;;;;14.23;11.93;;;;;;;;;;4917335;29;20437;-71
2023/06/22 06:36:39;;;;;;;12.67;11.47;;;;;;;;;;4917349;29;20409;-70
2023/06/22 06:39:05;;;;;;;13.27;10.47;;;;;;;;;;4917569;29;20973;-70
2023/06/22 06:41:31;;;;;;;13.87;12.37;;;;;;;;;;4917440;29;20417;-70
2023/06/22 06:43:57;;;;;;;21.57;12.60;;;;;;;;;;4917573;29;20422;-68
2023/06/22 06:46:23;;;;;;;17.50;12.00;;;;;;;;;;4917458;29;20231;-61
2023/06/22 06:48:49;;;;;;;15.20;13.17;;;;;;;;;;4917253;29;20468;-61
2023/06/22 06:51:15;;;;;;;15.80;12.37;;;;;;;;;;4917452;29;20477;-61
2023/06/22 06:53:41;;;;;;;14.87;12.87;;;;;;;;;;4917230;29;20897;-61
2023/06/22 06:56:10;;;;;;;25.10;13.63;;;;;;;;;;4916860;29;20451;-66
2023/06/22 06:58:36;;;;;;;27.13;14.40;;;;;;;;;;4917263;29;20480;-67
2023/06/22 07:01:03;;;;;;;15.67;13.97;;;;;;;;;;4916939;29;20436;-66
2023/06/22 07:03:29;;;;;;;17.00;13.33;;;;;;;;;;4916144;29;20523;-67
2023/06/22 07:05:55;;;;;;;27.23;14.27;;;;;;;;;;4916422;29;20544;-71
2023/06/22 07:08:21;;;;;;;16.60;13.23;;;;;;;;;;4931179;29;20416;-71
2023/06/22 07:10:46;;;;;;;18.80;13.73;;;;;;;;;;4917334;29;20428;-71
2023/06/22 07:13:13;;;;;;;14.17;12.50;;;;;;;;;;4931576;29;20540;-70
2023/06/22 07:15:39;;;;;;;12.17;9.50;;;;;;;;;;4917099;29;20452;-71
2023/06/22 07:18:05;;;;;;;16.43;13.67;;;;;;;;;;4916950;29;20594;-71
2023/06/22 07:20:30;;;;;;;18.37;15.23;;;;;;;;;;4916967;29;21050;-71
2023/06/22 07:22:58;;;;;;;23.27;15.97;;;;;;;;;;4916277;29;20429;-71
2023/06/22 07:25:24;;;;;;;16.77;13.73;;;;;;;;;;4917263;29;20795;-71
2023/06/22 07:28:03;;;;;;;27.17;16.00;;;;;;;;;;4916780;29;20964;-71
2023/06/22 07:30:29;;;;;;;27.83;16.77;;;;;;;;;;4916922;29;20452;-71
2023/06/22 07:32:55;;;;;;;31.40;15.43;;;;;;;;;;4916563;29;20991;-71
2023/06/22 07:35:21;;;;;;;17.97;15.47;;;;;;;;;;4916822;29;20423;-71
2023/06/22 07:37:47;;;;;;;28.33;14.57;;;;;;;;;;4916565;29;20435;-70
2023/06/22 07:40:13;;;;;;;20.83;14.37;;;;;;;;;;4916464;29;20420;-71
2023/06/22 07:42:39;;;;;;;15.93;13.90;;;;;;;;;;4916600;29;20484;-71
2023/06/22 07:45:07;;;;;;;23.80;14.23;;;;;;;;;;4916490;29;20428;-71
2023/06/22 07:47:35;;;;;;;15.53;13.90;;;;;;;;;;4916604;29;20928;-71
2023/06/22 07:50:01;;;;;;;17.90;14.90;;;;;;;;;;4916687;29;20424;-71
2023/06/22 07:52:28;;;;;;;15.23;13.67;;;;;;;;;;4916553;29;20472;-71
2023/06/22 07:54:54;;;;;;;17.17;15.47;;;;;;;;;;4917066;29;20566;-71
2023/06/22 07:57:20;;;;;;;16.77;15.17;;;;;;;;;;4916716;29;20437;-72
2023/06/22 07:59:46;;;;;;;19.93;15.13;;;;;;;;;;4916919;29;20905;-71
2023/06/22 08:02:12;;;;;;;19.43;15.93;;;;;;;;;;4920288;29;20428;-71
2023/06/22 08:04:38;;;;;;;14.80;12.97;;;;;;;;;;4920240;29;20412;-70
2023/06/22 08:07:04;;;;;;;17.17;14.60;;;;;;;;;;4920207;29;20437;-71
2023/06/22 08:09:31;;;;;;;15.27;13.63;;;;;;;;;;4920508;29;20500;-71
2023/06/22 08:11:57;;;;;;;14.97;12.07;;;;;;;;;;4920220;29;20502;-71
2023/06/22 08:14:24;;;;;;;20.23;13.30;;;;;;;;;;4919826;29;20456;-71
2023/06/22 08:16:50;;;;;;;15.20;12.70;;;;;;;;;;4919894;29;20437;-70
2023/06/22 08:19:17;;;;;;;13.37;11.80;;;;;;;;;;4920221;29;20478;-71
2023/06/22 08:21:43;;;;;;;26.20;12.00;;;;;;;;;;4919965;29;20527;-71
2023/06/22 08:24:09;;;;;;;19.03;11.47;;;;;;;;;;4919699;29;20476;-70
2023/06/22 08:26:37;;;;;;;21.13;12.50;;;;;;;;;;4919958;29;20973;-71
2023/06/22 08:29:04;;;;;;;15.17;10.77;;;;;;;;;;4919720;29;20941;-71
2023/06/22 08:31:30;;;;;;;18.30;13.50;;;;;;;;;;4934097;29;20515;-71
2023/06/22 08:33:56;;;;;;;18.37;13.60;;;;;;;;;;4919320;29;20894;-71
2023/06/22 08:36:22;;;;;;;20.23;12.30;;;;;;;;;;4919902;29;20420;-70
2023/06/22 08:38:51;;;;;;;13.90;11.43;;;;;;;;;;4920216;29;20461;-71
2023/06/22 08:41:17;;;;;;;17.77;12.40;;;;;;;;;;4919657;29;20941;-71
2023/06/22 08:43:44;;;;;;;18.83;13.50;;;;;;;;;;4919649;29;20968;-70
2023/06/22 08:46:10;;;;;;;13.13;7.90;;;;;;;;;;4919653;29;20439;-71
2023/06/22 08:51:39;;;;;;;14.03;12.60;;;;;;;;;;4919410;29;20531;-70
2023/06/22 08:54:05;;;;;;;17.27;11.80;;;;;;;;;;4919390;29;20413;-70
2023/06/22 08:56:31;;;;;;;19.07;10.90;;;;;;;;;;4919238;29;20428;-70
2023/06/22 08:58:57;;;;;;;8.80;7.93;;;;;;;;;;4919540;29;20413;-70
2023/06/22 09:01:23;;;;;;;16.40;10.73;;;;;;;;;;4919155;29;20436;-69
2023/06/22 09:03:54;;;;;;;12.73;8.80;;;;;;;;;;4919461;29;20424;-69
2023/06/22 09:06:21;;;;;;;14.17;9.27;;;;;;;;;;4919729;29;20409;-69
2023/06/22 09:08:47;;;;;;;17.50;11.17;;;;;;;;;;4919035;29;20428;-69
2023/06/22 09:11:13;;;;;;;9.30;8.10;;;;;;;;;;4918722;29;20427;-68
2023/06/22 09:13:39;;;;;;;8.20;7.60;;;;;;;;;;4918304;29;20428;-69
2023/06/22 09:16:05;;;;;;;20.63;9.53;;;;;;;;;;4919219;29;20413;-69
2023/06/22 09:18:31;;;;;;;14.60;9.30;;;;;;;;;;4919066;29;20471;-69
2023/06/22 09:20:57;;;;;;;11.70;9.67;;;;;;;;;;4918965;29;20516;-69
2023/06/22 09:23:23;;;;;;;17.93;8.60;;;;;;;;;;4919174;29;20550;-70
2023/06/22 09:25:49;;;;;;;12.93;8.60;;;;;;;;;;4919099;29;20932;-70
2023/06/22 09:31:25;;;;;;;9.40;6.90;;;;;;;;;;4918572;29;20475;-70
2023/06/22 09:33:51;;;;;;;16.53;8.20;;;;;;;;;;4918978;29;20501;-69
2023/06/22 09:36:17;;;;;;;10.33;6.73;;;;;;;;;;4918902;29;20468;-69
2023/06/22 09:38:43;;;;;;;6.90;6.27;;;;;;;;;;4918606;29;20562;-70
2023/06/22 09:41:09;;;;;;;7.90;7.20;;;;;;;;;;4918518;29;20436;-68
2023/06/22 09:43:36;;;;;;;7.57;6.85;;;;;;;;;;4918262;29;20518;-73
2023/06/22 09:46:02;;;;;;;7.60;6.90;;;;;;;;;;4918907;29;20259;-70
2023/06/22 09:51:31;;;;;;;18.43;8.60;;;;;;;;;;4918271;29;20479;-70
2023/06/22 09:53:58;;;;;;;10.67;8.10;;;;;;;;;;4918506;29;20515;-69
2023/06/22 09:56:24;;;;;;;9.17;7.67;;;;;;;;;;4918353;29;20433;-70
2023/06/22 10:01:54;;;;;;;8.63;7.77;;;;;;;;;;4918183;29;20763;-69
2023/06/22 10:04:19;;;;;;;11.77;6.30;;;;;;;;;;4918337;29;20421;-68
2023/06/22 10:06:46;;;;;;;17.87;7.70;;;;;;;;;;4918616;29;20941;-70
2023/06/22 10:09:11;;;;;;;10.00;7.00;;;;;;;;;;4918037;29;20421;-70
2023/06/22 10:11:37;;;;;;;8.40;6.90;;;;;;;;;;4918211;29;20479;-70
2023/06/22 10:14:04;;;;;;;6.90;6.30;;;;;;;;;;4918240;29;20914;-70
2023/06/22 10:16:35;;;;;;;7.40;6.53;;;;;;;;;;4918520;29;20413;-70
2023/06/22 10:19:01;;;;;;;7.80;7.00;;;;;;;;;;4917896;29;20955;-71
2023/06/22 10:21:28;;;;;;;9.27;5.87;;;;;;;;;;4917897;29;20515;-70
2023/06/22 10:23:55;;;;;;;9.47;7.80;;;;;;;;;;4917763;29;20429;-70
2023/06/22 10:26:21;;;;;;;10.37;7.30;;;;;;;;;;4917970;29;20425;-70
2023/06/22 10:28:47;;;;;;;10.10;6.70;;;;;;;;;;4917924;29;20432;-70
2023/06/22 10:31:13;;;;;;;12.13;6.47;;;;;;;;;;4917610;29;20469;-70
2023/06/22 10:33:41;;;;;;;9.00;6.40;;;;;;;;;;4918159;29;20433;-69
2023/06/22 10:36:07;;;;;;;10.87;6.23;;;;;;;;;;4917461;29;20944;-69
2023/06/22 10:38:33;;;;;;;17.50;7.93;;;;;;;;;;4917654;29;20421;-69
2023/06/22 10:40:59;;;;;;;12.13;6.63;;;;;;;;;;4917441;29;20898;-70
2023/06/22 10:43:25;;;;;;;7.97;6.93;;;;;;;;;;4917439;29;20432;-70
2023/06/22 10:45:51;;;;;;;13.70;6.37;;;;;;;;;;4917439;29;20429;-69
2023/06/22 10:48:17;;;;;;;9.97;7.13;;;;;;;;;;4917622;29;20428;-69
2023/06/22 10:50:43;;;;;;;11.10;7.80;;;;;;;;;;4917342;29;20452;-70
2023/06/22 10:53:09;;;;;;;12.43;8.10;;;;;;;;;;4917243;29;20480;-70
2023/06/22 10:55:35;;;;;;;11.63;7.93;;;;;;;;;;4917557;29;20417;-70
2023/06/22 10:58:01;;;;;;;25.53;9.67;;;;;;;;;;4917260;29;20416;-70
2023/06/22 11:00:27;;;;;;;12.10;7.87;;;;;;;;;;4917031;29;20460;-70
2023/06/22 11:02:52;;;;;;;13.17;8.83;;;;;;;;;;4917185;29;20475;-70
2023/06/22 11:05:18;;;;;;;12.53;9.17;;;;;;;;;;4931642;29;20470;-70
2023/06/22 11:07:44;;;;;;;9.83;7.00;;;;;;;;;;4917623;29;20424;-70
2023/06/22 11:10:11;;;;;;;11.40;7.60;;;;;;;;;;4917431;29;20760;-70
2023/06/22 11:12:37;;;;;;;10.10;8.07;;;;;;;;;;4917211;29;20480;-71
2023/06/22 11:15:03;;;;;;;15.43;7.20;;;;;;;;;;4917072;29;20759;-70
2023/06/22 11:17:29;;;;;;;11.57;6.63;;;;;;;;;;4916925;29;20590;-70
2023/06/22 11:19:55;;;;;;;14.37;7.30;;;;;;;;;;4917236;29;20512;-70
2023/06/22 11:22:21;;;;;;;7.93;6.07;;;;;;;;;;4916026;29;20181;-70
2023/06/22 11:24:47;;;;;;;13.00;6.70;;;;;;;;;;4931398;29;20428;-70
2023/06/22 11:27:13;;;;;;;26.33;8.40;;;;;;;;;;4917438;29;20836;-70
2023/06/22 11:29:39;;;;;;;13.13;9.33;;;;;;;;;;4917185;29;20207;-70
2023/06/22 11:32:06;;;;;;;23.70;9.60;;;;;;;;;;4916451;29;20500;-70
2023/06/22 11:34:32;;;;;;;14.27;8.07;;;;;;;;;;4931472;29;20421;-70
2023/06/22 11:36:58;;;;;;;11.17;9.20;;;;;;;;;;4920599;29;20795;-70
2023/06/22 11:39:24;;;;;;;13.20;7.47;;;;;;;;;;4920791;29;20464;-70
2023/06/22 11:41:50;;;;;;;10.97;8.43;;;;;;;;;;4920635;29;20428;-70
2023/06/22 11:44:16;;;;;;;18.53;8.10;;;;;;;;;;4920590;29;20784;-71
2023/06/22 11:46:42;;;;;;;16.00;9.00;;;;;;;;;;4920824;29;20476;-70
2023/06/22 11:49:08;;;;;;;8.47;7.27;;;;;;;;;;4935277;29;20467;-70
2023/06/22 11:51:34;;;;;;;22.37;8.87;;;;;;;;;;4920464;29;20472;-70
2023/06/22 11:54:01;;;;;;;15.10;7.50;;;;;;;;;;4920323;29;20437;-70
2023/06/22 11:56:27;;;;;;;11.90;8.10;;;;;;;;;;4920575;29;20713;-71
2023/06/22 12:01:58;;;;;;;7.13;6.27;;;;;;;;;;4920251;29;20411;-71
2023/06/22 12:04:24;;;;;;;9.07;7.97;;;;;;;;;;4934892;29;20436;-70
2023/06/22 12:06:50;;;;;;;10.00;8.93;;;;;;;;;;4920600;29;20488;-70
2023/06/22 12:09:16;;;;;;;15.80;8.53;;;;;;;;;;4920366;29;20181;-69
2023/06/22 12:11:42;;;;;;;16.33;8.87;;;;;;;;;;4920027;29;20491;-70
2023/06/22 12:14:08;;;;;;;15.53;8.17;;;;;;;;;;4920052;29;20416;-70
2023/06/22 12:16:34;;;;;;;10.87;9.50;;;;;;;;;;4920675;29;20428;-70
2023/06/22 12:19:00;;;;;;;12.93;7.83;;;;;;;;;;4919918;29;20417;-70
2023/06/22 12:21:26;;;;;;;10.57;6.90;;;;;;;;;;4919966;29;20519;-71
2023/06/22 12:23:52;;;;;;;16.43;9.13;;;;;;;;;;4920149;29;20435;-70
2023/06/22 12:26:18;;;;;;;14.10;8.33;;;;;;;;;;4920258;29;20425;-71
2023/06/22 12:28:44;;;;;;;7.67;6.53;;;;;;;;;;4920166;29;20219;-70
2023/06/22 12:31:10;;;;;;;14.43;8.57;;;;;;;;;;4919543;29;20479;-69
2023/06/22 12:33:36;;;;;;;13.30;6.83;;;;;;;;;;4934417;29;20412;-70
2023/06/22 12:36:03;;;;;;;14.43;7.40;;;;;;;;;;4919807;29;20443;-71
2023/06/22 12:38:29;;;;;;;14.23;6.00;;;;;;;;;;4919640;29;20421;-69
2023/06/22 12:40:55;;;;;;;14.20;6.60;;;;;;;;;;4920295;29;20767;-70
2023/06/22 12:43:21;;;;;;;10.83;6.07;;;;;;;;;;4919923;29;20425;-70
2023/06/22 12:45:47;;;;;;;6.23;5.53;;;;;;;;;;4919736;29;20429;-71
2023/06/22 12:48:13;;;;;;;16.70;5.90;;;;;;;;;;4919482;29;20479;-70
2023/06/22 12:50:39;;;;;;;12.43;6.20;;;;;;;;;;4919758;29;20424;-70
2023/06/22 12:53:06;;;;;;;24.00;5.90;;;;;;;;;;4919341;29;20476;-70
2023/06/22 12:55:32;;;;;;;12.83;6.00;;;;;;;;;;4919751;29;20427;-70
2023/06/22 12:57:58;;;;;;;15.70;5.43;;;;;;;;;;4919390;29;20909;-70
2023/06/22 13:00:24;;;;;;;12.40;6.43;;;;;;;;;;4919949;29;20431;-70
2023/06/22 13:02:50;;;;;;;7.70;6.13;;;;;;;;;;4933856;29;20812;-69
2023/06/22 13:05:16;;;;;;;12.67;6.97;;;;;;;;;;4919227;29;20432;-70
2023/06/22 13:07:42;;;;;;;9.23;5.87;;;;;;;;;;4919701;29;20512;-70
2023/06/22 13:10:08;;;;;;;11.37;5.70;;;;;;;;;;4919108;29;20937;-70
2023/06/22 13:12:34;;;;;;;6.03;5.43;;;;;;;;;;4919282;29;20512;-70
2023/06/22 13:15:00;;;;;;;13.23;5.53;;;;;;;;;;4919323;29;20912;-70
2023/06/22 13:17:26;;;;;;;9.03;6.60;;;;;;;;;;4919450;29;20429;-69
2023/06/22 13:19:52;;;;;;;17.67;6.60;;;;;;;;;;4919400;29;20469;-71
2023/06/22 13:22:39;;;;;;;17.07;7.00;;;;;;;;;;4919126;29;20874;-70
2023/06/22 13:25:06;;;;;;;10.17;6.40;;;;;;;;;;4918904;29;20860;-70
2023/06/22 13:27:32;;;;;;;18.13;6.20;;;;;;;;;;4919082;29;20479;-70
2023/06/22 13:29:58;;;;;;;15.73;5.90;;;;;;;;;;4918839;29;20825;-69
2023/06/22 13:32:24;;;;;;;15.30;5.67;;;;;;;;;;4918442;29;20488;-70
2023/06/22 13:34:50;;;;;;;15.00;5.90;;;;;;;;;;4918749;29;20428;-70
2023/06/22 13:37:16;;;;;;;8.47;4.77;;;;;;;;;;4918709;29;20432;-69
2023/06/22 13:39:42;;;;;;;15.73;5.77;;;;;;;;;;4918542;29;20424;-78
2023/06/22 13:42:08;;;;;;;20.47;6.60;;;;;;;;;;4919035;29;20941;-70
2023/06/22 13:44:36;;;;;;;7.13;4.80;;;;;;;;;;4918768;29;20564;-69
2023/06/22 13:47:02;;;;;;;18.40;5.83;;;;;;;;;;4918730;29;20429;-69
2023/06/22 13:49:28;;;;;;;11.27;5.20;;;;;;;;;;4918752;29;20452;-69
2023/06/22 13:51:54;;;;;;;11.53;5.80;;;;;;;;;;4918534;29;20800;-69
2023/06/22 13:54:21;;;;;;;20.90;6.80;;;;;;;;;;4918581;29;20519;-69
2023/06/22 13:56:47;;;;;;;14.97;5.30;;;;;;;;;;4918521;29;20425;-69
2023/06/22 13:59:13;;;;;;;17.90;5.80;;;;;;;;;;4917718;29;20764;-69
2023/06/22 14:01:39;;;;;;;12.80;5.70;;;;;;;;;;4918176;29;20489;-69
2023/06/22 14:04:07;;;;;;;12.50;5.80;;;;;;;;;;4918383;29;20484;-69
2023/06/22 14:06:33;;;;;;;19.77;6.57;;;;;;;;;;4918351;29;20424;-69
2023/06/22 14:08:59;;;;;;;14.47;6.30;;;;;;;;;;4918325;29;20428;-69
2023/06/22 14:11:25;;;;;;;14.03;5.97;;;;;;;;;;4918109;29;20780;-69
2023/06/22 14:13:51;;;;;;;15.50;6.10;;;;;;;;;;4918055;29;20470;-69
2023/06/22 14:16:17;;;;;;;15.33;5.63;;;;;;;;;;4918185;29;20869;-69
2023/06/22 14:18:43;;;;;;;18.83;6.00;;;;;;;;;;4918153;29;20436;-71
2023/06/22 14:21:09;;;;;;;9.20;5.30;;;;;;;;;;4918655;29;20558;-71
2023/06/22 14:23:35;;;;;;;15.30;4.57;;;;;;;;;;4918022;29;20917;-71
2023/06/22 14:26:01;;;;;;;8.90;5.40;;;;;;;;;;4917843;29;20829;-71
2023/06/22 14:28:27;;;;;;;16.00;9.90;;;;;;;;;;4917674;29;20439;-69
2023/06/22 14:30:53;;;;;;;10.33;5.10;;;;;;;;;;4917436;29;20448;-69
2023/06/22 14:33:19;;;;;;;15.07;5.57;;;;;;;;;;4917834;29;20468;-69
2023/06/22 14:35:45;;;;;;;9.60;4.83;;;;;;;;;;4917592;29;20413;-69
2023/06/22 14:38:11;;;;;;;16.13;4.57;;;;;;;;;;4917608;29;20850;-69
2023/06/22 14:40:37;;;;;;;18.70;5.30;;;;;;;;;;4916575;29;20522;-69